Xapuri, Brazil
Current Conditions -  °F | °C
As of 6:00 PM on Friday 28 Nov 2014 (Local Time) from SLCO Reporting Station
Broken Clouds Broken Clouds  
Wind Chill: 77°   Ceiling: 7000
Heat Index: 78°   Visibility: 6mi
Dew Point: 73°   Wind: 5mph
Humidity: 89%   Direction: 310°NW
Pressure: 29.8"   Gusts: NA
Location:  10.65°S, 68.5°W
Report Text: SLCO 282200Z 31004KT 9999 FEW006 BKN070 25/23 Q1009
Loading
Personal Weather Stations






























Interactive Weather Map New forecast layout! Learn more

10-Day Weather Forecast

Advertisements
Track Severe Weather on mobile